sensor_id;sensor_type;location;lat;lon;timestamp;pressure;altitude;pressure_sealevel;temperature;humidity
33795;BME280;51430;52.242;21.118;2023-06-14T00:00:00;100480.14;;;14.10;100.00
33795;BME280;51430;52.242;21.118;2023-06-14T00:02:28;100485.05;;;14.10;100.00
33795;BME280;51430;52.242;21.118;2023-06-14T00:04:57;100480.88;;;14.09;100.00
33795;BME280;51430;52.242;21.118;2023-06-14T00:07:38;100480.05;;;14.11;100.00
33795;BME280;51430;52.242;21.118;2023-06-14T00:10:11;100476.84;;;14.13;100.00
33795;BME280;51430;52.242;21.118;2023-06-14T00:12:40;100475.59;;;14.13;100.00
33795;BME280;51430;52.242;21.118;2023-06-14T00:15:08;100477.27;;;14.14;100.00
33795;BME280;51430;52.242;21.118;2023-06-14T00:17:39;100474.60;;;14.15;100.00
33795;BME280;51430;52.242;21.118;2023-06-14T00:20:08;100471.71;;;14.15;100.00
33795;BME280;51430;52.242;21.118;2023-06-14T00:22:37;100471.95;;;14.15;100.00
33795;BME280;51430;52.242;21.118;2023-06-14T00:25:07;100472.55;;;14.14;100.00
33795;BME280;51430;52.242;21.118;2023-06-14T00:27:46;100472.60;;;14.11;100.00
33795;BME280;51430;52.242;21.118;2023-06-14T00:30:14;100472.44;;;14.11;100.00
33795;BME280;51430;52.242;21.118;2023-06-14T00:32:43;100472.74;;;14.10;100.00
33795;BME280;51430;52.242;21.118;2023-06-14T00:35:11;100466.38;;;14.07;100.00
33795;BME280;51430;52.242;21.118;2023-06-14T00:37:39;100465.90;;;14.06;100.00
33795;BME280;51430;52.242;21.118;2023-06-14T00:40:07;100464.56;;;14.06;100.00
33795;BME280;51430;52.242;21.118;2023-06-14T00:42:35;100463.84;;;14.06;100.00
33795;BME280;51430;52.242;21.118;2023-06-14T00:45:04;100467.36;;;14.06;100.00
33795;BME280;51430;52.242;21.118;2023-06-14T00:47:32;100463.12;;;14.04;100.00
33795;BME280;51430;52.242;21.118;2023-06-14T00:50:01;100465.21;;;14.02;100.00
33795;BME280;51430;52.242;21.118;2023-06-14T00:52:29;100455.39;;;14.02;100.00
33795;BME280;51430;52.242;21.118;2023-06-14T00:54:57;100453.41;;;14.01;100.00
33795;BME280;51430;52.242;21.118;2023-06-14T00:57:25;100455.42;;;14.02;100.00
33795;BME280;51430;52.242;21.118;2023-06-14T00:59:53;100456.39;;;14.03;100.00
33795;BME280;51430;52.242;21.118;2023-06-14T01:02:23;100458.55;;;14.02;100.00
33795;BME280;51430;52.242;21.118;2023-06-14T01:04:52;100463.61;;;14.02;100.00
33795;BME280;51430;52.242;21.118;2023-06-14T01:13:27;100457.95;;;14.01;100.00
33795;BME280;51430;52.242;21.118;2023-06-14T01:15:56;100463.11;;;14.00;100.00
33795;BME280;51430;52.242;21.118;2023-06-14T01:18:24;100464.52;;;14.04;100.00
33795;BME280;51430;52.242;21.118;2023-06-14T01:20:53;100469.09;;;14.06;100.00
33795;BME280;51430;52.242;21.118;2023-06-14T01:23:23;100465.54;;;14.08;100.00
33795;BME280;51430;52.242;21.118;2023-06-14T01:25:52;100464.55;;;14.10;100.00
33795;BME280;51430;52.242;21.118;2023-06-14T01:28:21;100459.33;;;14.11;100.00
33795;BME280;51430;52.242;21.118;2023-06-14T01:30:52;100455.60;;;14.11;100.00
33795;BME280;51430;52.242;21.118;2023-06-14T01:33:22;100453.98;;;14.12;100.00
33795;BME280;51430;52.242;21.118;2023-06-14T01:35:53;100456.83;;;14.14;100.00
33795;BME280;51430;52.242;21.118;2023-06-14T01:38:24;100454.73;;;14.13;100.00
33795;BME280;51430;52.242;21.118;2023-06-14T01:40:56;100453.20;;;14.13;100.00
33795;BME280;51430;52.242;21.118;2023-06-14T01:43:25;100455.73;;;14.14;100.00
33795;BME280;51430;52.242;21.118;2023-06-14T01:45:55;100451.69;;;14.16;100.00
33795;BME280;51430;52.242;21.118;2023-06-14T01:48:25;100448.14;;;14.18;100.00
33795;BME280;51430;52.242;21.118;2023-06-14T01:50:53;100442.98;;;14.19;100.00
33795;BME280;51430;52.242;21.118;2023-06-14T01:53:21;100445.49;;;14.19;100.00
33795;BME280;51430;52.242;21.118;2023-06-14T01:55:49;100441.94;;;14.17;100.00
33795;BME280;51430;52.242;21.118;2023-06-14T01:58:17;100442.92;;;14.16;100.00
33795;BME280;51430;52.242;21.118;2023-06-14T02:00:45;100452.01;;;14.14;100.00
33795;BME280;51430;52.242;21.118;2023-06-14T02:03:13;100446.89;;;14.15;100.00
33795;BME280;51430;52.242;21.118;2023-06-14T02:05:41;100450.65;;;14.14;100.00
33795;BME280;51430;52.242;21.118;2023-06-14T02:08:09;100447.63;;;14.14;100.00
33795;BME280;51430;52.242;21.118;2023-06-14T02:10:37;100448.48;;;14.16;100.00
33795;BME280;51430;52.242;21.118;2023-06-14T02:13:05;100446.72;;;14.17;100.00
33795;BME280;51430;52.242;21.118;2023-06-14T02:15:33;100446.75;;;14.18;100.00
33795;BME280;51430;52.242;21.118;2023-06-14T02:18:04;100447.64;;;14.18;100.00
33795;BME280;51430;52.242;21.118;2023-06-14T02:20:32;100445.80;;;14.15;100.00
33795;BME280;51430;52.242;21.118;2023-06-14T02:23:02;100448.20;;;14.06;100.00
33795;BME280;51430;52.242;21.118;2023-06-14T02:25:30;100454.46;;;14.03;100.00
33795;BME280;51430;52.242;21.118;2023-06-14T02:27:58;100453.37;;;14.03;100.00
33795;BME280;51430;52.242;21.118;2023-06-14T02:30:26;100448.65;;;14.07;100.00
33795;BME280;51430;52.242;21.118;2023-06-14T02:32:54;100446.63;;;14.10;100.00
33795;BME280;51430;52.242;21.118;2023-06-14T02:35:21;100444.00;;;14.14;100.00
33795;BME280;51430;52.242;21.118;2023-06-14T02:37:52;100443.61;;;14.14;100.00
33795;BME280;51430;52.242;21.118;2023-06-14T02:40:20;100441.44;;;14.17;100.00
33795;BME280;51430;52.242;21.118;2023-06-14T02:42:48;100438.81;;;14.17;100.00
33795;BME280;51430;52.242;21.118;2023-06-14T02:45:17;100435.95;;;14.19;100.00
33795;BME280;51430;52.242;21.118;2023-06-14T02:47:45;100436.48;;;14.21;100.00
33795;BME280;51430;52.242;21.118;2023-06-14T02:50:14;100435.36;;;14.24;100.00
33795;BME280;51430;52.242;21.118;2023-06-14T02:52:42;100435.80;;;14.25;100.00
33795;BME280;51430;52.242;21.118;2023-06-14T02:55:12;100432.15;;;14.27;100.00
33795;BME280;51430;52.242;21.118;2023-06-14T02:57:40;100432.91;;;14.30;100.00
33795;BME280;51430;52.242;21.118;2023-06-14T03:00:08;100436.41;;;14.34;100.00
33795;BME280;51430;52.242;21.118;2023-06-14T03:02:37;100437.11;;;14.32;100.00
33795;BME280;51430;52.242;21.118;2023-06-14T03:05:06;100438.75;;;14.33;100.00
33795;BME280;51430;52.242;21.118;2023-06-14T03:07:34;100439.98;;;14.34;100.00
33795;BME280;51430;52.242;21.118;2023-06-14T03:10:02;100437.20;;;14.33;100.00
33795;BME280;51430;52.242;21.118;2023-06-14T03:12:31;100442.27;;;14.35;100.00
33795;BME280;51430;52.242;21.118;2023-06-14T03:14:59;100439.42;;;14.38;100.00
33795;BME280;51430;52.242;21.118;2023-06-14T03:17:32;100437.48;;;14.40;100.00
33795;BME280;51430;52.242;21.118;2023-06-14T03:20:01;100438.56;;;14.37;100.00
33795;BME280;51430;52.242;21.118;2023-06-14T03:22:29;100437.54;;;14.37;100.00
33795;BME280;51430;52.242;21.118;2023-06-14T03:24:58;100435.04;;;14.37;100.00
33795;BME280;51430;52.242;21.118;2023-06-14T03:27:27;100434.83;;;14.40;100.00
33795;BME280;51430;52.242;21.118;2023-06-14T03:29:56;100434.19;;;14.39;100.00
33795;BME280;51430;52.242;21.118;2023-06-14T03:38:01;100430.17;;;14.37;100.00
33795;BME280;51430;52.242;21.118;2023-06-14T03:40:30;100426.29;;;14.33;100.00
33795;BME280;51430;52.242;21.118;2023-06-14T03:42:58;100423.73;;;14.44;100.00
33795;BME280;51430;52.242;21.118;2023-06-14T03:45:26;100423.69;;;14.49;100.00
33795;BME280;51430;52.242;21.118;2023-06-14T03:47:54;100423.91;;;14.52;100.00
33795;BME280;51430;52.242;21.118;2023-06-14T03:50:22;100425.11;;;14.56;100.00
33795;BME280;51430;52.242;21.118;2023-06-14T03:52:50;100425.98;;;14.61;100.00
33795;BME280;51430;52.242;21.118;2023-06-14T03:55:18;100425.08;;;14.66;100.00
33795;BME280;51430;52.242;21.118;2023-06-14T03:57:48;100427.25;;;14.68;100.00
33795;BME280;51430;52.242;21.118;2023-06-14T04:00:17;100432.47;;;14.75;100.00
33795;BME280;51430;52.242;21.118;2023-06-14T04:02:45;100429.38;;;14.78;100.00
33795;BME280;51430;52.242;21.118;2023-06-14T04:05:13;100428.35;;;14.83;100.00
33795;BME280;51430;52.242;21.118;2023-06-14T04:07:47;100429.73;;;14.89;100.00
33795;BME280;51430;52.242;21.118;2023-06-14T04:10:16;100436.81;;;14.94;100.00
33795;BME280;51430;52.242;21.118;2023-06-14T04:12:43;100438.69;;;14.98;100.00
33795;BME280;51430;52.242;21.118;2023-06-14T04:15:11;100438.64;;;14.99;100.00
33795;BME280;51430;52.242;21.118;2023-06-14T04:17:48;100442.48;;;14.99;100.00
33795;BME280;51430;52.242;21.118;2023-06-14T04:20:16;100445.45;;;14.99;100.00
33795;BME280;51430;52.242;21.118;2023-06-14T04:22:44;100447.65;;;15.00;100.00
33795;BME280;51430;52.242;21.118;2023-06-14T04:25:12;100448.25;;;15.03;100.00
33795;BME280;51430;52.242;21.118;2023-06-14T04:27:41;100446.89;;;15.06;100.00
33795;BME280;51430;52.242;21.118;2023-06-14T04:30:10;100443.09;;;15.09;100.00
33795;BME280;51430;52.242;21.118;2023-06-14T04:32:38;100438.14;;;15.14;100.00
33795;BME280;51430;52.242;21.118;2023-06-14T04:35:07;100435.90;;;15.20;100.00
33795;BME280;51430;52.242;21.118;2023-06-14T04:37:35;100434.42;;;15.25;100.00
33795;BME280;51430;52.242;21.118;2023-06-14T04:40:08;100434.92;;;15.29;100.00
33795;BME280;51430;52.242;21.118;2023-06-14T04:42:39;100434.19;;;15.29;100.00
33795;BME280;51430;52.242;21.118;2023-06-14T04:45:09;100430.88;;;15.32;100.00
33795;BME280;51430;52.242;21.118;2023-06-14T04:47:37;100433.41;;;15.34;99.99
33795;BME280;51430;52.242;21.118;2023-06-14T04:50:06;100431.67;;;15.37;99.97
33795;BME280;51430;52.242;21.118;2023-06-14T04:52:34;100433.38;;;15.43;100.00
33795;BME280;51430;52.242;21.118;2023-06-14T04:55:05;100437.14;;;15.48;99.80
33795;BME280;51430;52.242;21.118;2023-06-14T04:57:33;100438.02;;;15.48;99.71
33795;BME280;51430;52.242;21.118;2023-06-14T05:00:01;100442.27;;;15.50;99.51
33795;BME280;51430;52.242;21.118;2023-06-14T05:02:34;100441.64;;;15.49;99.35
33795;BME280;51430;52.242;21.118;2023-06-14T05:05:05;100447.20;;;15.50;99.34
33795;BME280;51430;52.242;21.118;2023-06-14T05:07:35;100448.04;;;15.52;99.41
33795;BME280;51430;52.242;21.118;2023-06-14T05:10:07;100449.75;;;15.53;99.31
33795;BME280;51430;52.242;21.118;2023-06-14T05:12:35;100458.30;;;15.53;99.38
33795;BME280;51430;52.242;21.118;2023-06-14T05:15:05;100459.05;;;15.53;99.07
33795;BME280;51430;52.242;21.118;2023-06-14T05:17:33;100459.76;;;15.56;99.06
33795;BME280;51430;52.242;21.118;2023-06-14T05:20:04;100458.27;;;15.61;98.87
33795;BME280;51430;52.242;21.118;2023-06-14T05:22:33;100456.06;;;15.64;99.25
33795;BME280;51430;52.242;21.118;2023-06-14T05:25:01;100459.17;;;15.72;99.36
33795;BME280;51430;52.242;21.118;2023-06-14T05:27:29;100462.27;;;15.80;99.39
33795;BME280;51430;52.242;21.118;2023-06-14T05:29:57;100457.73;;;15.85;99.05
33795;BME280;51430;52.242;21.118;2023-06-14T05:32:27;100457.48;;;15.89;98.61
33795;BME280;51430;52.242;21.118;2023-06-14T05:34:54;100459.48;;;15.92;98.41
33795;BME280;51430;52.242;21.118;2023-06-14T05:37:22;100457.11;;;15.89;98.03
33795;BME280;51430;52.242;21.118;2023-06-14T05:39:50;100456.91;;;15.88;97.75
33795;BME280;51430;52.242;21.118;2023-06-14T05:42:18;100457.86;;;15.91;97.72
33795;BME280;51430;52.242;21.118;2023-06-14T05:44:46;100460.13;;;15.98;97.93
33795;BME280;51430;52.242;21.118;2023-06-14T05:47:14;100459.29;;;16.06;98.07
33795;BME280;51430;52.242;21.118;2023-06-14T05:49:41;100459.59;;;16.12;97.71
33795;BME280;51430;52.242;21.118;2023-06-14T05:52:09;100462.46;;;16.14;97.53
33795;BME280;51430;52.242;21.118;2023-06-14T05:54:39;100463.31;;;16.12;97.32
33795;BME280;51430;52.242;21.118;2023-06-14T05:57:07;100471.70;;;16.11;97.05
33795;BME280;51430;52.242;21.118;2023-06-14T05:59:35;100473.27;;;16.13;97.06
33795;BME280;51430;52.242;21.118;2023-06-14T06:02:03;100470.38;;;16.12;96.92
33795;BME280;51430;52.242;21.118;2023-06-14T06:04:31;100467.45;;;16.17;97.22
33795;BME280;51430;52.242;21.118;2023-06-14T06:06:59;100465.38;;;16.20;96.77
33795;BME280;51430;52.242;21.118;2023-06-14T06:09:27;100462.62;;;16.26;96.81
33795;BME280;51430;52.242;21.118;2023-06-14T06:11:55;100463.07;;;16.38;96.54
33795;BME280;51430;52.242;21.118;2023-06-14T06:14:23;100458.73;;;16.44;96.04
33795;BME280;51430;52.242;21.118;2023-06-14T06:16:51;100457.69;;;16.51;95.77
33795;BME280;51430;52.242;21.118;2023-06-14T06:19:20;100457.86;;;16.55;95.41
33795;BME280;51430;52.242;21.118;2023-06-14T06:21:48;100459.84;;;16.58;95.65
33795;BME280;51430;52.242;21.118;2023-06-14T06:24:16;100460.58;;;16.63;95.59
33795;BME280;51430;52.242;21.118;2023-06-14T06:26:44;100463.67;;;16.69;95.70
33795;BME280;51430;52.242;21.118;2023-06-14T06:29:12;100466.58;;;16.75;95.69
33795;BME280;51430;52.242;21.118;2023-06-14T06:31:40;100472.43;;;16.83;95.89
33795;BME280;51430;52.242;21.118;2023-06-14T06:34:08;100480.10;;;16.92;95.84
33795;BME280;51430;52.242;21.118;2023-06-14T06:36:36;100478.63;;;16.99;95.40
33795;BME280;51430;52.242;21.118;2023-06-14T06:39:04;100476.95;;;17.06;95.26
33795;BME280;51430;52.242;21.118;2023-06-14T06:41:38;100481.15;;;17.10;95.08
33795;BME280;51430;52.242;21.118;2023-06-14T06:44:07;100482.82;;;17.14;94.95
33795;BME280;51430;52.242;21.118;2023-06-14T06:46:36;100484.40;;;17.16;94.65
33795;BME280;51430;52.242;21.118;2023-06-14T06:49:08;100481.03;;;17.13;94.33
33795;BME280;51430;52.242;21.118;2023-06-14T06:51:36;100480.54;;;17.09;94.21
33795;BME280;51430;52.242;21.118;2023-06-14T06:54:04;100476.45;;;17.06;94.54
33795;BME280;51430;52.242;21.118;2023-06-14T06:56:34;100471.52;;;17.08;94.67
33795;BME280;51430;52.242;21.118;2023-06-14T06:59:02;100478.91;;;17.08;94.47
33795;BME280;51430;52.242;21.118;2023-06-14T07:01:30;100481.67;;;17.10;94.56
33795;BME280;51430;52.242;21.118;2023-06-14T07:03:58;100483.90;;;17.12;94.50
33795;BME280;51430;52.242;21.118;2023-06-14T07:06:26;100484.69;;;17.20;94.74
33795;BME280;51430;52.242;21.118;2023-06-14T07:08:55;100485.73;;;17.27;94.53
33795;BME280;51430;52.242;21.118;2023-06-14T07:11:22;100488.35;;;17.38;94.58
33795;BME280;51430;52.242;21.118;2023-06-14T07:13:50;100491.01;;;17.52;94.33
33795;BME280;51430;52.242;21.118;2023-06-14T07:23:37;100480.40;;;17.91;94.09
33795;BME280;51430;52.242;21.118;2023-06-14T07:26:05;100479.44;;;17.96;94.10
33795;BME280;51430;52.242;21.118;2023-06-14T07:28:32;100482.92;;;18.10;92.68
33795;BME280;51430;52.242;21.118;2023-06-14T07:31:01;100483.66;;;18.26;91.50
33795;BME280;51430;52.242;21.118;2023-06-14T07:33:30;100486.23;;;18.38;91.01
33795;BME280;51430;52.242;21.118;2023-06-14T07:35:58;100488.73;;;18.55;90.23
33795;BME280;51430;52.242;21.118;2023-06-14T07:38:25;100489.65;;;18.74;89.40
33795;BME280;51430;52.242;21.118;2023-06-14T07:40:53;100497.48;;;19.04;89.58
33795;BME280;51430;52.242;21.118;2023-06-14T07:43:21;100498.58;;;19.29;88.35
33795;BME280;51430;52.242;21.118;2023-06-14T07:45:49;100496.94;;;19.48;86.75
33795;BME280;51430;52.242;21.118;2023-06-14T07:48:32;100496.09;;;19.66;85.69
33795;BME280;51430;52.242;21.118;2023-06-14T07:51:00;100502.86;;;19.80;84.40
33795;BME280;51430;52.242;21.118;2023-06-14T07:53:29;100505.23;;;19.95;83.87
33795;BME280;51430;52.242;21.118;2023-06-14T07:55:58;100505.14;;;20.11;82.74
33795;BME280;51430;52.242;21.118;2023-06-14T07:58:26;100507.98;;;20.25;81.71
33795;BME280;51430;52.242;21.118;2023-06-14T08:00:54;100500.93;;;20.34;81.68
33795;BME280;51430;52.242;21.118;2023-06-14T08:03:22;100502.92;;;20.39;81.83
33795;BME280;51430;52.242;21.118;2023-06-14T08:05:50;100505.23;;;20.32;80.95
33795;BME280;51430;52.242;21.118;2023-06-14T08:08:18;100512.79;;;20.27;80.61
33795;BME280;51430;52.242;21.118;2023-06-14T08:10:46;100509.31;;;20.25;80.24
33795;BME280;51430;52.242;21.118;2023-06-14T08:13:14;100509.17;;;20.28;80.07
33795;BME280;51430;52.242;21.118;2023-06-14T08:15:42;100511.54;;;20.31;79.95
33795;BME280;51430;52.242;21.118;2023-06-14T08:18:10;100512.69;;;20.33;80.47
33795;BME280;51430;52.242;21.118;2023-06-14T08:20:38;100514.81;;;20.28;81.10
33795;BME280;51430;52.242;21.118;2023-06-14T08:23:07;100515.34;;;20.21;81.38
33795;BME280;51430;52.242;21.118;2023-06-14T08:25:36;100516.58;;;20.07;80.97
33795;BME280;51430;52.242;21.118;2023-06-14T08:28:04;100515.61;;;20.03;80.67
33795;BME280;51430;52.242;21.118;2023-06-14T08:30:32;100517.52;;;19.98;80.33
33795;BME280;51430;52.242;21.118;2023-06-14T08:33:00;100519.77;;;19.87;80.63
33795;BME280;51430;52.242;21.118;2023-06-14T08:35:42;100517.13;;;19.78;82.12
33795;BME280;51430;52.242;21.118;2023-06-14T08:38:10;100519.79;;;19.79;82.38
33795;BME280;51430;52.242;21.118;2023-06-14T08:40:41;100515.53;;;19.82;82.12
33795;BME280;51430;52.242;21.118;2023-06-14T08:43:09;100510.51;;;19.85;82.02
33795;BME280;51430;52.242;21.118;2023-06-14T08:45:37;100513.21;;;19.90;81.40
33795;BME280;51430;52.242;21.118;2023-06-14T08:48:07;100515.39;;;19.92;80.47
33795;BME280;51430;52.242;21.118;2023-06-14T08:50:36;100516.02;;;19.99;81.03
33795;BME280;51430;52.242;21.118;2023-06-14T08:53:08;100510.09;;;20.09;80.83
33795;BME280;51430;52.242;21.118;2023-06-14T08:55:38;100511.82;;;20.28;79.85
33795;BME280;51430;52.242;21.118;2023-06-14T08:58:10;100504.48;;;20.55;78.11
33795;BME280;51430;52.242;21.118;2023-06-14T09:00:42;100503.01;;;20.93;77.66
33795;BME280;51430;52.242;21.118;2023-06-14T09:03:11;100507.54;;;21.33;77.09
33795;BME280;51430;52.242;21.118;2023-06-14T09:05:41;100510.58;;;21.75;75.69
33795;BME280;51430;52.242;21.118;2023-06-14T09:08:10;100511.73;;;22.24;73.43
33795;BME280;51430;52.242;21.118;2023-06-14T09:10:40;100510.93;;;22.59;71.65
33795;BME280;51430;52.242;21.118;2023-06-14T09:13:08;100509.65;;;22.72;70.87
33795;BME280;51430;52.242;21.118;2023-06-14T09:15:36;100511.40;;;22.83;70.98
33795;BME280;51430;52.242;21.118;2023-06-14T09:18:04;100513.04;;;22.90;69.63
33795;BME280;51430;52.242;21.118;2023-06-14T09:20:33;100515.85;;;22.98;70.10
33795;BME280;51430;52.242;21.118;2023-06-14T09:23:04;100518.49;;;22.95;68.92
33795;BME280;51430;52.242;21.118;2023-06-14T09:25:42;100519.10;;;22.89;68.18
33795;BME280;51430;52.242;21.118;2023-06-14T09:28:11;100522.38;;;22.72;67.56
33795;BME280;51430;52.242;21.118;2023-06-14T09:30:39;100522.84;;;22.47;67.28
33795;BME280;51430;52.242;21.118;2023-06-14T09:33:07;100517.23;;;22.49;67.71
33795;BME280;51430;52.242;21.118;2023-06-14T09:35:36;100515.17;;;22.66;66.57
33795;BME280;51430;52.242;21.118;2023-06-14T09:38:04;100519.30;;;23.15;65.79
33795;BME280;51430;52.242;21.118;2023-06-14T09:40:35;100516.77;;;24.65;62.46
33795;BME280;51430;52.242;21.118;2023-06-14T09:43:06;100521.51;;;26.24;57.24
33795;BME280;51430;52.242;21.118;2023-06-14T09:45:38;100520.67;;;26.49;53.44
33795;BME280;51430;52.242;21.118;2023-06-14T09:48:07;100525.98;;;26.26;54.95
33795;BME280;51430;52.242;21.118;2023-06-14T09:50:36;100527.14;;;26.16;54.86
33795;BME280;51430;52.242;21.118;2023-06-14T09:53:11;100528.25;;;26.07;52.89
33795;BME280;51430;52.242;21.118;2023-06-14T09:55:41;100523.50;;;25.82;53.18
33795;BME280;51430;52.242;21.118;2023-06-14T09:58:10;100521.29;;;25.47;54.05
33795;BME280;51430;52.242;21.118;2023-06-14T10:00:40;100518.44;;;24.89;51.22
33795;BME280;51430;52.242;21.118;2023-06-14T10:03:21;100519.61;;;24.67;52.72
33795;BME280;51430;52.242;21.118;2023-06-14T10:05:50;100518.93;;;24.51;54.63
33795;BME280;51430;52.242;21.118;2023-06-14T10:08:22;100520.77;;;24.46;54.78
33795;BME280;51430;52.242;21.118;2023-06-14T10:10:55;100521.56;;;24.59;54.37
33795;BME280;51430;52.242;21.118;2023-06-14T10:13:25;100522.81;;;24.95;54.02
33795;BME280;51430;52.242;21.118;2023-06-14T10:18:47;100524.71;;;25.73;50.59
33795;BME280;51430;52.242;21.118;2023-06-14T10:21:32;100524.79;;;25.53;49.04
33795;BME280;51430;52.242;21.118;2023-06-14T10:24:05;100525.77;;;25.95;48.72
33795;BME280;51430;52.242;21.118;2023-06-14T10:26:35;100522.67;;;27.10;46.96
33795;BME280;51430;52.242;21.118;2023-06-14T10:29:09;100524.14;;;27.08;46.32
33795;BME280;51430;52.242;21.118;2023-06-14T10:31:45;100528.95;;;26.81;46.78
33795;BME280;51430;52.242;21.118;2023-06-14T10:34:28;100525.91;;;26.30;46.60
33795;BME280;51430;52.242;21.118;2023-06-14T10:37:03;100529.35;;;25.91;47.39
33795;BME280;51430;52.242;21.118;2023-06-14T10:39:37;100527.88;;;25.49;49.06
33795;BME280;51430;52.242;21.118;2023-06-14T10:42:05;100527.31;;;25.23;49.98
33795;BME280;51430;52.242;21.118;2023-06-14T10:44:39;100528.41;;;24.92;49.92
33795;BME280;51430;52.242;21.118;2023-06-14T10:47:20;100526.20;;;24.57;50.18
33795;BME280;51430;52.242;21.118;2023-06-14T10:50:27;100525.52;;;24.41;51.58
33795;BME280;51430;52.242;21.118;2023-06-14T10:52:55;100525.93;;;24.05;51.48
33795;BME280;51430;52.242;21.118;2023-06-14T10:55:23;100523.37;;;23.84;52.28
33795;BME280;51430;52.242;21.118;2023-06-14T10:57:53;100523.58;;;23.85;52.11
33795;BME280;51430;52.242;21.118;2023-06-14T11:00:28;100520.32;;;23.90;53.28
33795;BME280;51430;52.242;21.118;2023-06-14T11:03:03;100520.63;;;23.92;52.42
33795;BME280;51430;52.242;21.118;2023-06-14T11:05:57;100512.58;;;24.04;52.86
33795;BME280;51430;52.242;21.118;2023-06-14T11:11:18;100510.15;;;23.87;52.97
33795;BME280;51430;52.242;21.118;2023-06-14T11:13:49;100506.25;;;23.95;53.71
33795;BME280;51430;52.242;21.118;2023-06-14T11:16:25;100509.07;;;24.01;53.19
33795;BME280;51430;52.242;21.118;2023-06-14T11:18:56;100508.04;;;24.09;53.40
33795;BME280;51430;52.242;21.118;2023-06-14T11:21:24;100506.27;;;24.26;52.52
33795;BME280;51430;52.242;21.118;2023-06-14T11:23:54;100503.66;;;24.62;51.36
33795;BME280;51430;52.242;21.118;2023-06-14T11:26:30;100503.66;;;24.93;50.48
33795;BME280;51430;52.242;21.118;2023-06-14T11:28:59;100507.73;;;25.55;48.74
33795;BME280;51430;52.242;21.118;2023-06-14T11:35:55;100506.65;;;29.01;39.56
33795;BME280;51430;52.242;21.118;2023-06-14T11:38:23;100516.50;;;30.25;38.57
33795;BME280;51430;52.242;21.118;2023-06-14T11:40:51;100521.42;;;31.45;36.60
33795;BME280;51430;52.242;21.118;2023-06-14T11:43:19;100523.73;;;31.66;35.46
33795;BME280;51430;52.242;21.118;2023-06-14T11:45:48;100523.27;;;31.24;36.02
33795;BME280;51430;52.242;21.118;2023-06-14T11:48:43;100522.09;;;30.13;38.00
33795;BME280;51430;52.242;21.118;2023-06-14T11:51:11;100518.95;;;30.61;36.91
33795;BME280;51430;52.242;21.118;2023-06-14T11:53:39;100522.73;;;31.19;36.26
33795;BME280;51430;52.242;21.118;2023-06-14T11:56:07;100526.40;;;31.61;35.17
33795;BME280;51430;52.242;21.118;2023-06-14T11:58:35;100523.49;;;31.44;35.02
33795;BME280;51430;52.242;21.118;2023-06-14T12:05:22;100521.48;;;31.66;34.11
33795;BME280;51430;52.242;21.118;2023-06-14T12:07:50;100524.59;;;32.03;33.58
33795;BME280;51430;52.242;21.118;2023-06-14T12:10:27;100524.73;;;31.80;33.53
33795;BME280;51430;52.242;21.118;2023-06-14T12:12:59;100530.33;;;32.38;32.84
33795;BME280;51430;52.242;21.118;2023-06-14T12:15:28;100531.18;;;33.10;31.93
33795;BME280;51430;52.242;21.118;2023-06-14T12:18:00;100527.73;;;33.67;31.08
33795;BME280;51430;52.242;21.118;2023-06-14T12:20:31;100526.59;;;34.39;29.70
33795;BME280;51430;52.242;21.118;2023-06-14T12:22:59;100529.89;;;34.65;29.86
33795;BME280;51430;52.242;21.118;2023-06-14T12:25:31;100520.77;;;33.82;29.80
33795;BME280;51430;52.242;21.118;2023-06-14T12:28:04;100524.46;;;34.14;30.43
33795;BME280;51430;52.242;21.118;2023-06-14T12:30:35;100520.77;;;34.73;29.39
33795;BME280;51430;52.242;21.118;2023-06-14T12:33:04;100517.04;;;34.83;29.05
33795;BME280;51430;52.242;21.118;2023-06-14T12:35:33;100515.02;;;34.85;29.44
33795;BME280;51430;52.242;21.118;2023-06-14T12:38:01;100508.94;;;34.16;29.60
33795;BME280;51430;52.242;21.118;2023-06-14T12:40:31;100511.77;;;33.89;30.50
33795;BME280;51430;52.242;21.118;2023-06-14T12:42:59;100515.31;;;35.03;29.55
33795;BME280;51430;52.242;21.118;2023-06-14T12:45:27;100517.41;;;35.45;28.29
33795;BME280;51430;52.242;21.118;2023-06-14T12:47:56;100511.98;;;34.94;28.39
33795;BME280;51430;52.242;21.118;2023-06-14T12:50:24;100516.09;;;34.06;28.98
33795;BME280;51430;52.242;21.118;2023-06-14T12:52:53;100516.63;;;33.79;29.23
33795;BME280;51430;52.242;21.118;2023-06-14T12:55:21;100516.38;;;33.36;29.57
33795;BME280;51430;52.242;21.118;2023-06-14T12:57:49;100518.73;;;33.87;29.80
33795;BME280;51430;52.242;21.118;2023-06-14T13:00:19;100514.94;;;34.34;28.49
33795;BME280;51430;52.242;21.118;2023-06-14T13:02:48;100506.61;;;34.99;28.02
33795;BME280;51430;52.242;21.118;2023-06-14T13:05:16;100507.95;;;35.73;27.65
33795;BME280;51430;52.242;21.118;2023-06-14T13:07:44;100507.75;;;36.16;26.82
33795;BME280;51430;52.242;21.118;2023-06-14T13:10:12;100505.54;;;36.27;26.50
33795;BME280;51430;52.242;21.118;2023-06-14T13:12:40;100504.41;;;36.38;26.61
33795;BME280;51430;52.242;21.118;2023-06-14T13:15:08;100503.50;;;35.99;26.89
33795;BME280;51430;52.242;21.118;2023-06-14T13:17:36;100502.23;;;34.80;28.11
33795;BME280;51430;52.242;21.118;2023-06-14T13:20:07;100500.45;;;34.47;28.52